Time;durP1;ratioP1;P1;durP2;ratioP2;P2;SDS_P1;SDS_P2;PMS_P1;PMS_P2;Temp;Humidity;BMP_temperature;BMP_pressure;BME280_temperature;BME280_humidity;BME280_pressure;Samples;Min_cycle;Max_cycle;Signal;HPM_P1;HPM_P2
2023/12/10 00:00:40;;;;;;;17.57;4.27;;;8.20;99.90;;;;;;5053001;28;20253;-68
2023/12/10 00:03:05;;;;;;;17.03;3.77;;;8.10;99.90;;;;;;5062579;28;20181;-68
2023/12/10 00:05:31;;;;;;;11.63;3.40;;;8.10;99.90;;;;;;5070296;22;20222;-72
2023/12/10 00:07:57;;;;;;;13.30;3.33;;;8.00;99.90;;;;;;5027289;28;20178;-71
2023/12/10 00:10:23;;;;;;;16.30;4.40;;;8.00;99.90;;;;;;5033209;28;20206;-71
2023/12/10 00:12:48;;;;;;;13.00;3.40;;;8.00;99.90;;;;;;5040708;28;20794;-70
2023/12/10 00:15:14;;;;;;;13.37;3.23;;;8.00;99.90;;;;;;5031809;28;20913;-72
2023/12/10 00:17:41;;;;;;;9.00;3.00;;;8.00;99.90;;;;;;5041636;28;20598;-71
2023/12/10 00:20:07;;;;;;;17.33;4.00;;;8.00;99.90;;;;;;5041082;28;20181;-72
2023/12/10 00:22:32;;;;;;;10.93;4.93;;;7.90;99.90;;;;;;5042009;28;20413;-72
2023/12/10 00:24:58;;;;;;;10.33;3.17;;;7.90;99.90;;;;;;5039125;28;20504;-71
2023/12/10 00:27:23;;;;;;;9.33;3.23;;;7.90;99.90;;;;;;5027825;28;20182;-71
2023/12/10 00:29:49;;;;;;;13.27;3.63;;;7.90;99.90;;;;;;5019739;28;20187;-71
2023/12/10 00:32:14;;;;;;;10.23;5.80;;;7.90;99.90;;;;;;5040470;28;20190;-71
2023/12/10 00:34:40;;;;;;;9.50;3.30;;;7.90;99.90;;;;;;5040540;28;20213;-72
2023/12/10 00:37:05;;;;;;;14.27;4.30;;;7.90;99.90;;;;;;5034219;28;20203;-72
2023/12/10 00:39:31;;;;;;;19.23;4.00;;;7.90;99.90;;;;;;5031446;28;20265;-71
2023/12/10 00:41:56;;;;;;;18.83;4.57;;;7.90;99.90;;;;;;5040052;28;20633;-72
2023/12/10 00:44:22;;;;;;;19.00;3.80;;;7.80;99.90;;;;;;5031124;28;20177;-72
2023/12/10 00:46:47;;;;;;;14.30;4.00;;;7.90;99.90;;;;;;5032650;28;20244;-71
2023/12/10 00:49:13;;;;;;;17.53;4.70;;;7.80;99.90;;;;;;5039674;28;20638;-72
2023/12/10 00:51:38;;;;;;;18.47;3.77;;;7.80;99.90;;;;;;5030486;28;20186;-72
2023/12/10 00:54:06;;;;;;;16.53;4.10;;;7.80;99.90;;;;;;5026635;28;20178;-71
2023/12/10 00:56:32;;;;;;;22.13;5.50;;;7.80;99.90;;;;;;5033152;28;20197;-73
2023/12/10 00:58:57;;;;;;;20.00;5.60;;;7.80;99.90;;;;;;5036071;28;20433;-73
2023/12/10 01:01:23;;;;;;;11.63;4.20;;;7.90;99.90;;;;;;5035776;28;20170;-73
2023/12/10 01:03:49;;;;;;;10.93;4.70;;;7.80;99.90;;;;;;5043711;28;20259;-73
2023/12/10 01:06:15;;;;;;;12.40;4.40;;;7.90;99.90;;;;;;5034715;28;20251;-73
2023/12/10 01:08:40;;;;;;;21.07;5.07;;;7.90;99.90;;;;;;5038034;28;20433;-73
2023/12/10 01:11:06;;;;;;;19.63;5.17;;;8.00;99.90;;;;;;5032780;28;20182;-72
2023/12/10 01:13:31;;;;;;;22.93;5.60;;;7.90;99.90;;;;;;5044892;28;20235;-73
2023/12/10 01:15:57;;;;;;;16.00;4.73;;;8.00;99.90;;;;;;5035912;28;20214;-73
2023/12/10 01:18:23;;;;;;;17.77;5.30;;;8.00;99.90;;;;;;5048032;28;20185;-72
2023/12/10 01:20:48;;;;;;;17.47;4.63;;;8.00;99.90;;;;;;5039251;28;20174;-72
2023/12/10 01:23:17;;;;;;;21.37;4.40;;;8.10;99.90;;;;;;5035004;28;20811;-73
2023/12/10 01:25:43;;;;;;;18.63;4.70;;;8.10;99.90;;;;;;5024112;28;20220;-73
2023/12/10 01:28:09;;;;;;;13.00;5.27;;;8.10;99.90;;;;;;5039604;28;20424;-72
2023/12/10 01:30:35;;;;;;;15.43;5.03;;;8.10;99.90;;;;;;5021445;28;20492;-72
2023/12/10 01:33:01;;;;;;;19.87;5.60;;;8.10;99.90;;;;;;5031988;28;20453;-71
2023/12/10 01:35:26;;;;;;;19.30;5.10;;;8.10;99.90;;;;;;5037160;28;20210;-72
2023/12/10 01:37:52;;;;;;;15.80;5.23;;;8.20;99.90;;;;;;5039574;28;20189;-71
2023/12/10 01:40:19;;;;;;;15.10;4.63;;;8.20;99.90;;;;;;5034053;28;20205;-74
2023/12/10 01:42:45;;;;;;;15.70;4.80;;;8.20;99.90;;;;;;5042156;28;20178;-73
2023/12/10 01:45:11;;;;;;;16.60;4.93;;;8.20;99.90;;;;;;5025127;28;20990;-73
2023/12/10 01:47:40;;;;;;;18.40;6.90;;;8.20;99.90;;;;;;5039956;28;20511;-73
2023/12/10 01:50:08;;;;;;;17.33;4.50;;;8.20;99.90;;;;;;5046620;28;20479;-73
2023/12/10 01:52:34;;;;;;;18.03;5.13;;;8.20;99.90;;;;;;5035513;28;20433;-73
2023/12/10 01:55:03;;;;;;;19.03;4.77;;;8.20;99.90;;;;;;5039003;28;20460;-73
2023/12/10 01:57:30;;;;;;;24.60;6.20;;;8.30;99.90;;;;;;5042661;28;20439;-73
2023/12/10 01:59:58;;;;;;;19.27;4.23;;;8.30;99.90;;;;;;5035270;28;20921;-71
2023/12/10 02:02:24;;;;;;;19.37;4.63;;;8.30;99.90;;;;;;5040983;28;20979;-74
2023/12/10 02:04:53;;;;;;;21.53;6.60;;;8.30;99.90;;;;;;5034346;28;20432;-74
2023/12/10 02:07:20;;;;;;;14.77;4.23;;;8.30;99.90;;;;;;5039493;28;20853;-74
2023/12/10 02:09:45;;;;;;;11.13;5.63;;;8.30;99.90;;;;;;5031049;28;20504;-73
2023/12/10 02:12:11;;;;;;;24.10;4.23;;;8.30;99.90;;;;;;5029589;28;20552;-73
2023/12/10 02:14:37;;;;;;;22.23;4.90;;;8.30;99.90;;;;;;5035995;28;20206;-73
2023/12/10 02:17:02;;;;;;;18.87;4.30;;;8.30;99.90;;;;;;5033149;28;20198;-73
2023/12/10 02:19:28;;;;;;;23.53;6.27;;;8.20;99.90;;;;;;5042913;28;20170;-74
2023/12/10 02:21:55;;;;;;;21.63;5.07;;;8.20;99.90;;;;;;5040282;28;20181;-74
2023/12/10 02:24:27;;;;;;;19.77;4.93;;;8.20;99.90;;;;;;5034982;28;20216;-72
2023/12/10 02:26:55;;;;;;;13.23;3.60;;;8.20;99.90;;;;;;5034257;28;20950;-71
2023/12/10 02:29:21;;;;;;;18.10;6.83;;;8.20;99.90;;;;;;5034168;28;20421;-73
2023/12/10 02:31:46;;;;;;;16.20;4.43;;;8.20;99.90;;;;;;5031163;28;20425;-72
2023/12/10 02:34:12;;;;;;;15.63;5.30;;;8.10;99.90;;;;;;5033429;28;20808;-73
2023/12/10 02:36:37;;;;;;;20.50;4.17;;;7.90;99.90;;;;;;5042939;28;20221;-71
2023/12/10 02:39:03;;;;;;;19.33;4.50;;;7.80;99.90;;;;;;5046684;28;20189;-72
2023/12/10 02:41:29;;;;;;;15.60;5.50;;;7.70;99.90;;;;;;5035311;28;20562;-72
2023/12/10 02:43:55;;;;;;;10.53;3.80;;;7.60;99.90;;;;;;5027962;28;20428;-73
2023/12/10 02:46:20;;;;;;;12.40;4.73;;;7.50;99.90;;;;;;5035213;28;20324;-72
2023/12/10 02:48:46;;;;;;;17.43;4.80;;;7.50;99.90;;;;;;5042293;28;20707;-71
2023/12/10 02:51:11;;;;;;;11.37;2.83;;;7.40;99.90;;;;;;5029955;28;20512;-71
2023/12/10 02:53:37;;;;;;;7.77;2.87;;;7.30;99.90;;;;;;5037621;28;20255;-70
2023/12/10 02:56:02;;;;;;;11.50;3.33;;;7.20;99.90;;;;;;5043730;28;20233;-71
2023/12/10 02:58:28;;;;;;;7.30;2.63;;;7.20;99.90;;;;;;5033376;28;20196;-71
2023/12/10 03:00:54;;;;;;;10.57;2.20;;;7.10;99.90;;;;;;5042636;28;20186;-70
2023/12/10 03:03:19;;;;;;;4.00;2.27;;;7.00;99.90;;;;;;5029283;28;20607;-70
2023/12/10 03:05:45;;;;;;;10.53;2.40;;;7.00;99.90;;;;;;5036827;28;20468;-71
2023/12/10 03:08:10;;;;;;;9.87;3.73;;;6.90;99.90;;;;;;5036292;28;20225;-71
2023/12/10 03:10:36;;;;;;;7.60;2.10;;;6.90;99.90;;;;;;5041494;28;20171;-70
2023/12/10 03:13:01;;;;;;;7.60;2.10;;;6.90;99.90;;;;;;5033340;28;20175;-71
2023/12/10 03:15:27;;;;;;;6.37;1.47;;;6.90;99.90;;;;;;5041210;28;20217;-71
2023/12/10 03:17:52;;;;;;;6.43;2.40;;;6.80;99.90;;;;;;5042614;28;20174;-70
2023/12/10 03:20:18;;;;;;;5.00;2.00;;;6.80;99.90;;;;;;5042649;28;20205;-71
2023/12/10 03:22:43;;;;;;;7.50;2.03;;;6.70;99.90;;;;;;5034977;28;20695;-71
2023/12/10 03:25:09;;;;;;;9.63;2.40;;;6.70;99.90;;;;;;5034453;28;20198;-71
2023/12/10 03:27:35;;;;;;;3.83;1.87;;;6.60;99.90;;;;;;5032873;28;20166;-70
2023/12/10 03:30:01;;;;;;;10.57;2.90;;;6.60;99.90;;;;;;5039832;28;20209;-71
2023/12/10 03:32:26;;;;;;;13.73;3.27;;;6.60;99.90;;;;;;5043458;28;20533;-71
2023/12/10 03:34:52;;;;;;;9.73;2.73;;;6.60;99.90;;;;;;5036350;28;20285;-71
2023/12/10 03:37:17;;;;;;;7.87;2.73;;;6.60;99.90;;;;;;5040528;28;20166;-72
2023/12/10 03:39:43;;;;;;;10.30;2.47;;;6.60;99.90;;;;;;5045592;28;20189;-72
2023/12/10 03:42:08;;;;;;;6.33;2.83;;;6.70;99.90;;;;;;5037287;28;20272;-72
2023/12/10 03:44:34;;;;;;;13.30;3.23;;;6.70;99.90;;;;;;5046995;28;20580;-72
2023/12/10 03:47:02;;;;;;;9.30;3.10;;;6.70;99.90;;;;;;5033170;28;20285;-70
2023/12/10 03:49:29;;;;;;;13.33;3.00;;;6.80;99.90;;;;;;5037898;28;20184;-71
2023/12/10 03:51:57;;;;;;;12.70;3.73;;;6.80;99.90;;;;;;5046407;28;20913;-72
2023/12/10 03:54:23;;;;;;;10.83;3.60;;;6.80;99.90;;;;;;5034283;28;20793;-71
2023/12/10 03:56:48;;;;;;;8.47;3.23;;;6.80;99.90;;;;;;5032684;28;20461;-72
2023/12/10 03:59:14;;;;;;;11.80;3.20;;;6.80;99.90;;;;;;5040961;28;20257;-70
2023/12/10 04:01:43;;;;;;;9.50;2.93;;;6.80;99.90;;;;;;5035791;28;20193;-72
2023/12/10 04:04:12;;;;;;;14.33;4.30;;;6.80;99.90;;;;;;5041931;28;20180;-71
2023/12/10 04:06:39;;;;;;;8.63;2.83;;;6.80;99.90;;;;;;5048380;28;20459;-71
2023/12/10 04:09:05;;;;;;;14.97;3.57;;;6.80;99.90;;;;;;5053987;28;20431;-71
2023/12/10 04:11:30;;;;;;;11.47;3.73;;;6.80;99.90;;;;;;5040392;28;20444;-72
2023/12/10 04:13:56;;;;;;;12.10;3.70;;;6.70;99.90;;;;;;5033414;28;20182;-72
2023/12/10 04:16:30;;;;;;;13.23;2.13;;;6.80;99.90;;;;;;5040236;28;20233;-72
2023/12/10 04:18:56;;;;;;;6.70;3.20;;;6.80;99.90;;;;;;5033732;28;20185;-72
2023/12/10 04:21:22;;;;;;;8.00;3.03;;;6.80;99.90;;;;;;5042324;28;20443;-72
2023/12/10 04:23:48;;;;;;;17.80;3.70;;;6.70;99.90;;;;;;5031680;28;20261;-72
2023/12/10 04:26:15;;;;;;;11.80;2.90;;;6.70;99.90;;;;;;5030581;28;20449;-69
2023/12/10 04:28:41;;;;;;;12.83;3.43;;;6.70;99.90;;;;;;5040956;28;20801;-72
2023/12/10 04:31:06;;;;;;;15.13;3.10;;;6.80;99.90;;;;;;5037600;28;20440;-72
2023/12/10 04:33:32;;;;;;;11.57;3.40;;;6.80;99.90;;;;;;5043569;28;20441;-72
2023/12/10 04:35:57;;;;;;;19.40;3.53;;;6.80;99.90;;;;;;5032763;28;20210;-70
2023/12/10 04:38:23;;;;;;;17.07;3.37;;;6.80;99.90;;;;;;5031613;28;20245;-72
2023/12/10 04:40:48;;;;;;;12.17;2.47;;;6.80;99.90;;;;;;5036117;28;20256;-72
2023/12/10 04:43:14;;;;;;;19.60;7.50;;;6.90;99.90;;;;;;5029518;28;20185;-69
2023/12/10 04:45:41;;;;;;;17.87;3.07;;;6.90;99.90;;;;;;5033589;28;20213;-71
2023/12/10 04:48:06;;;;;;;13.23;3.03;;;6.90;99.90;;;;;;5034949;28;20182;-71
2023/12/10 04:50:32;;;;;;;11.37;3.00;;;6.90;99.90;;;;;;5043209;28;20440;-71
2023/12/10 04:52:57;;;;;;;5.70;2.50;;;7.00;99.90;;;;;;5034661;28;20185;-72
2023/12/10 04:55:23;;;;;;;9.53;3.00;;;7.10;99.90;;;;;;5032682;28;20219;-70
2023/12/10 04:57:49;;;;;;;10.43;4.53;;;7.20;99.90;;;;;;5037917;28;20201;-72
2023/12/10 05:00:15;;;;;;;8.20;2.53;;;7.20;99.90;;;;;;5040661;28;20281;-72
2023/12/10 05:02:41;;;;;;;13.87;3.37;;;7.30;99.90;;;;;;5036303;28;20673;-72
2023/12/10 05:05:08;;;;;;;11.33;3.03;;;7.30;99.90;;;;;;5047728;28;20433;-71
2023/12/10 05:07:34;;;;;;;10.30;3.10;;;7.30;99.90;;;;;;5038642;28;20575;-72
2023/12/10 05:10:00;;;;;;;8.97;2.83;;;7.30;99.90;;;;;;5038556;28;20442;-72
2023/12/10 05:12:26;;;;;;;21.23;3.40;;;7.30;99.90;;;;;;5036526;28;20817;-72
2023/12/10 05:14:51;;;;;;;18.10;3.70;;;7.30;99.90;;;;;;5036284;28;20961;-71
2023/12/10 05:17:17;;;;;;;7.13;2.80;;;7.30;99.90;;;;;;5030494;28;20179;-71
2023/12/10 05:19:42;;;;;;;13.90;3.77;;;7.30;99.90;;;;;;5038559;28;20190;-72
2023/12/10 05:22:08;;;;;;;11.10;2.83;;;7.30;99.90;;;;;;5033866;28;20174;-72
2023/12/10 05:24:33;;;;;;;10.30;2.87;;;7.30;99.90;;;;;;5036523;28;20543;-72
2023/12/10 05:26:59;;;;;;;8.97;3.00;;;7.30;99.90;;;;;;5035843;28;20198;-72
2023/12/10 05:29:24;;;;;;;8.27;2.90;;;7.30;99.90;;;;;;5032472;28;20168;-72
2023/12/10 05:31:50;;;;;;;16.30;5.27;;;7.30;99.90;;;;;;5031531;28;20174;-72
2023/12/10 05:34:15;;;;;;;9.13;2.70;;;7.20;99.90;;;;;;5042189;28;20247;-72
2023/12/10 05:36:41;;;;;;;4.93;2.80;;;7.20;99.90;;;;;;5042859;28;20218;-71
2023/12/10 05:39:07;;;;;;;13.87;4.70;;;7.20;99.90;;;;;;5031925;28;20603;-72
2023/12/10 05:41:32;;;;;;;8.00;3.03;;;7.20;99.90;;;;;;5039818;28;20265;-72
2023/12/10 05:43:58;;;;;;;14.83;2.87;;;7.20;99.90;;;;;;5038768;28;20178;-72
2023/12/10 05:46:23;;;;;;;8.67;2.43;;;7.20;99.90;;;;;;5034715;28;20277;-72
2023/12/10 05:48:49;;;;;;;11.43;2.83;;;7.20;99.90;;;;;;5038352;28;20182;-70
2023/12/10 05:51:15;;;;;;;10.33;2.47;;;7.20;99.90;;;;;;5041280;28;20185;-72
2023/12/10 05:53:41;;;;;;;9.43;2.97;;;7.20;99.90;;;;;;5030488;28;20601;-72
2023/12/10 05:56:07;;;;;;;15.17;3.67;;;7.20;99.90;;;;;;5043948;28;20463;-71
2023/12/10 05:58:33;;;;;;;10.80;4.13;;;7.20;99.90;;;;;;5049288;28;20174;-72
2023/12/10 06:00:58;;;;;;;11.87;3.10;;;7.20;99.90;;;;;;5028603;28;20855;-71
2023/12/10 06:03:24;;;;;;;15.50;3.17;;;7.20;99.90;;;;;;5042567;28;20173;-72
2023/12/10 06:05:50;;;;;;;10.80;3.70;;;7.30;99.90;;;;;;5058916;22;20230;-72
2023/12/10 06:08:16;;;;;;;14.67;3.07;;;7.30;99.90;;;;;;5031020;28;20432;-72
2023/12/10 06:10:41;;;;;;;17.60;5.50;;;7.30;99.90;;;;;;5030543;28;20631;-70
2023/12/10 06:13:07;;;;;;;12.30;3.27;;;7.30;99.90;;;;;;5040019;28;20173;-72
2023/12/10 06:15:32;;;;;;;9.50;3.07;;;7.30;99.90;;;;;;5025744;28;20300;-71
2023/12/10 06:17:58;;;;;;;9.40;2.83;;;7.30;99.90;;;;;;5038995;28;20228;-72
2023/12/10 06:20:24;;;;;;;10.90;3.50;;;7.30;99.90;;;;;;5028941;28;20190;-72
2023/12/10 06:22:50;;;;;;;16.00;3.67;;;7.30;99.90;;;;;;5038266;28;20173;-72
2023/12/10 06:25:15;;;;;;;9.43;2.63;;;7.30;99.90;;;;;;5031806;28;20460;-72
2023/12/10 06:27:41;;;;;;;5.70;2.87;;;7.30;99.90;;;;;;5031692;28;20189;-71
2023/12/10 06:30:08;;;;;;;11.63;3.30;;;7.30;99.90;;;;;;5031477;28;20814;-72
2023/12/10 06:32:34;;;;;;;11.80;2.77;;;7.20;99.90;;;;;;5036557;28;20664;-72
2023/12/10 06:35:00;;;;;;;14.93;3.63;;;7.20;99.90;;;;;;5031770;28;20456;-71
2023/12/10 06:37:25;;;;;;;4.63;2.73;;;7.20;99.90;;;;;;5030916;28;20198;-72
2023/12/10 06:39:51;;;;;;;11.60;2.83;;;7.20;99.90;;;;;;5039489;28;20181;-72
2023/12/10 06:42:16;;;;;;;11.43;2.40;;;7.10;99.90;;;;;;5030206;28;20181;-72
2023/12/10 06:44:42;;;;;;;7.43;3.23;;;7.10;99.90;;;;;;5039865;28;20662;-72
2023/12/10 06:47:07;;;;;;;11.23;2.67;;;7.10;99.90;;;;;;5030412;28;20202;-72
2023/12/10 06:49:33;;;;;;;8.80;3.13;;;7.20;99.90;;;;;;5029153;28;20257;-72
2023/12/10 06:51:58;;;;;;;16.00;3.70;;;7.20;99.90;;;;;;5039456;28;20185;-72
2023/12/10 06:54:24;;;;;;;11.43;2.63;;;7.30;99.90;;;;;;5043512;28;20584;-72
2023/12/10 06:56:49;;;;;;;10.53;4.40;;;7.30;99.90;;;;;;5046832;28;20230;-71
2023/12/10 06:59:15;;;;;;;11.70;3.10;;;7.30;99.90;;;;;;5039683;28;20186;-72
2023/12/10 07:01:41;;;;;;;9.10;2.43;;;7.30;99.90;;;;;;5029866;28;20285;-72
2023/12/10 07:04:07;;;;;;;9.27;2.30;;;7.30;99.90;;;;;;5036348;28;20444;-71
2023/12/10 07:06:34;;;;;;;11.13;2.33;;;7.40;99.90;;;;;;5039356;28;20217;-72
2023/12/10 07:09:00;;;;;;;7.90;2.47;;;7.40;99.90;;;;;;5048705;28;20493;-71
2023/12/10 07:11:25;;;;;;;9.03;2.43;;;7.40;99.90;;;;;;5051583;28;20428;-72
2023/12/10 07:13:53;;;;;;;7.97;2.60;;;7.40;99.90;;;;;;5042281;28;20263;-71
2023/12/10 07:16:21;;;;;;;9.83;3.30;;;7.40;99.90;;;;;;5036967;28;20212;-72
2023/12/10 07:18:47;;;;;;;11.93;3.83;;;7.40;99.90;;;;;;5036443;28;20451;-72
2023/12/10 07:21:12;;;;;;;14.37;4.73;;;7.30;99.90;;;;;;5031608;28;20464;-70
2023/12/10 07:23:38;;;;;;;10.27;2.83;;;7.30;99.90;;;;;;5032107;28;20182;-72
2023/12/10 07:26:04;;;;;;;11.40;2.83;;;7.30;99.90;;;;;;5044330;28;20202;-72
2023/12/10 07:28:30;;;;;;;10.33;2.70;;;7.20;99.90;;;;;;5053409;28;20177;-72
2023/12/10 07:30:55;;;;;;;7.73;1.90;;;7.20;99.90;;;;;;5047062;28;20451;-71
2023/12/10 07:33:21;;;;;;;8.50;2.97;;;7.10;99.90;;;;;;5036086;28;20230;-71
2023/12/10 07:35:47;;;;;;;8.20;4.00;;;7.10;99.90;;;;;;5046187;28;20278;-71
2023/12/10 07:38:13;;;;;;;9.17;2.50;;;7.00;99.90;;;;;;5034004;28;20179;-72
2023/12/10 07:40:39;;;;;;;13.90;3.20;;;7.00;99.90;;;;;;5044008;28;20929;-72
2023/12/10 07:43:05;;;;;;;9.47;2.60;;;7.00;99.90;;;;;;5033156;28;20197;-72
2023/12/10 07:45:31;;;;;;;9.47;2.63;;;7.00;99.90;;;;;;5040751;28;20193;-72
2023/12/10 07:47:56;;;;;;;12.83;2.70;;;7.00;99.90;;;;;;5043822;28;20933;-72
2023/12/10 07:50:22;;;;;;;10.13;2.40;;;7.00;99.90;;;;;;5034347;28;20269;-71
2023/12/10 07:52:47;;;;;;;8.20;3.27;;;7.10;99.90;;;;;;5042937;28;20227;-72
2023/12/10 07:55:13;;;;;;;3.80;2.10;;;7.10;99.90;;;;;;5036495;28;20232;-72
2023/12/10 07:57:38;;;;;;;13.37;4.67;;;7.20;99.90;;;;;;5039926;28;20178;-72
2023/12/10 08:00:05;;;;;;;8.67;3.47;;;7.20;99.90;;;;;;5034346;28;20261;-72
2023/12/10 08:02:34;;;;;;;15.20;3.87;;;7.20;99.90;;;;;;5032415;28;20236;-71
2023/12/10 08:04:59;;;;;;;9.80;3.47;;;7.30;99.90;;;;;;5034222;28;20945;-71
2023/12/10 08:07:25;;;;;;;7.10;2.57;;;7.40;99.90;;;;;;5042024;28;20467;-72
2023/12/10 08:09:51;;;;;;;7.77;3.43;;;7.40;99.90;;;;;;5034844;28;20183;-72
2023/12/10 08:12:17;;;;;;;18.27;3.20;;;7.50;99.90;;;;;;5033702;28;20577;-71
2023/12/10 08:14:43;;;;;;;13.10;3.10;;;7.50;99.90;;;;;;5032993;28;20194;-71
2023/12/10 08:17:08;;;;;;;11.43;4.77;;;7.60;99.90;;;;;;5029529;28;20465;-70
2023/12/10 08:19:35;;;;;;;6.57;3.40;;;7.70;99.90;;;;;;5039929;28;20494;-71
2023/12/10 08:22:01;;;;;;;13.60;3.60;;;7.80;99.90;;;;;;5042948;28;20173;-72
2023/12/10 08:24:27;;;;;;;10.23;2.90;;;7.90;99.90;;;;;;5043963;28;20445;-72
2023/12/10 08:26:53;;;;;;;6.43;2.53;;;7.90;99.90;;;;;;5041521;28;20499;-72
2023/12/10 08:29:19;;;;;;;9.57;2.90;;;8.00;99.90;;;;;;5054105;28;20843;-72
2023/12/10 08:31:44;;;;;;;9.93;3.20;;;8.00;99.90;;;;;;5048520;28;20209;-71
2023/12/10 08:34:10;;;;;;;6.27;2.17;;;8.10;99.90;;;;;;5045245;28;20253;-72
2023/12/10 08:36:36;;;;;;;5.57;2.50;;;8.20;99.90;;;;;;5040640;28;20214;-72
2023/12/10 08:39:02;;;;;;;10.83;2.53;;;8.20;99.90;;;;;;5037811;28;20532;-72
2023/12/10 08:41:27;;;;;;;8.40;2.50;;;8.20;99.90;;;;;;5040846;28;20686;-71
2023/12/10 08:43:53;;;;;;;9.47;2.60;;;8.20;99.90;;;;;;5050085;28;20224;-71
2023/12/10 08:46:18;;;;;;;9.37;2.83;;;8.20;99.90;;;;;;5032871;28;20676;-72
2023/12/10 08:48:45;;;;;;;12.83;2.77;;;8.30;99.90;;;;;;5034683;28;20266;-72
2023/12/10 08:51:11;;;;;;;10.57;3.50;;;8.40;99.90;;;;;;5019943;28;20182;-72
2023/12/10 08:53:36;;;;;;;7.30;2.40;;;8.50;99.90;;;;;;5041448;28;20451;-71
2023/12/10 08:56:02;;;;;;;12.10;4.43;;;8.50;99.90;;;;;;5042708;28;20215;-72
2023/12/10 08:58:29;;;;;;;11.10;3.47;;;8.50;99.90;;;;;;5033439;28;20231;-72
2023/12/10 09:00:55;;;;;;;11.27;2.63;;;9.00;99.90;;;;;;5033130;28;20182;-71
2023/12/10 09:03:21;;;;;;;9.40;2.53;;;10.20;99.90;;;;;;5046425;28;20782;-72
2023/12/10 09:05:46;;;;;;;11.10;3.30;;;11.20;99.90;;;;;;5039743;28;20210;-71
2023/12/10 09:08:11;;;;;;;6.57;2.60;;;11.50;99.90;;;;;;5041181;28;20598;-71
2023/12/10 09:10:37;;;;;;;6.97;3.30;;;12.30;99.90;;;;;;5034612;28;20200;-70
2023/12/10 09:13:03;;;;;;;7.70;3.20;;;12.90;99.90;;;;;;5044809;28;20178;-72
2023/12/10 09:15:28;;;;;;;6.13;2.80;;;13.90;99.90;;;;;;5040959;28;20292;-70
2023/12/10 09:17:54;;;;;;;8.70;2.40;;;14.70;99.90;;;;;;5037268;28;20178;-70
2023/12/10 09:20:19;;;;;;;10.03;3.40;;;15.20;99.90;;;;;;5043151;28;20178;-72
2023/12/10 09:22:45;;;;;;;7.10;3.57;;;15.90;99.90;;;;;;5035801;28;20746;-72
2023/12/10 09:25:11;;;;;;;7.67;2.67;;;15.80;99.90;;;;;;5033447;28;20205;-71
2023/12/10 09:27:36;;;;;;;6.57;2.90;;;15.40;99.90;;;;;;5031665;28;20201;-73
2023/12/10 09:30:02;;;;;;;12.97;4.93;;;15.80;99.90;;;;;;5041376;28;20894;-72
2023/12/10 09:32:29;;;;;;;5.93;2.57;;;15.80;99.90;;;;;;5038155;28;20186;-73
2023/12/10 09:34:55;;;;;;;5.13;2.80;;;15.80;99.90;;;;;;5037152;28;20449;-73
2023/12/10 09:37:20;;;;;;;8.40;2.87;;;14.50;99.90;;;;;;5029660;28;20506;-76
2023/12/10 09:39:46;;;;;;;6.33;2.73;;;14.60;99.90;;;;;;5041281;28;20507;-76
2023/12/10 09:42:12;;;;;;;11.47;2.93;;;14.60;99.90;;;;;;5032320;28;20271;-75
2023/12/10 09:44:38;;;;;;;14.73;3.17;;;14.80;99.90;;;;;;5039409;28;20174;-76
2023/12/10 09:47:08;;;;;;;9.97;3.70;;;15.30;99.90;;;;;;5027359;28;20456;-76
2023/12/10 09:49:37;;;;;;;6.60;2.87;;;14.50;99.90;;;;;;5031109;28;20316;-72
2023/12/10 09:52:06;;;;;;;4.83;2.50;;;13.10;99.90;;;;;;5038860;28;20790;-71
2023/12/10 09:54:32;;;;;;;7.73;2.87;;;12.10;99.90;;;;;;5030840;28;20448;-73
2023/12/10 09:56:57;;;;;;;3.93;2.13;;;11.10;99.90;;;;;;5028942;28;20466;-73
2023/12/10 09:59:23;;;;;;;6.83;2.30;;;10.50;99.90;;;;;;5029015;28;20170;-72
2023/12/10 10:01:53;;;;;;;10.30;2.73;;;11.50;99.90;;;;;;5029418;28;20173;-72
2023/12/10 10:04:19;;;;;;;8.10;2.77;;;12.70;99.90;;;;;;5040150;28;20905;-72
2023/12/10 10:06:44;;;;;;;6.43;3.10;;;12.90;99.90;;;;;;5030388;28;20476;-72
2023/12/10 10:09:10;;;;;;;5.13;2.17;;;12.40;99.90;;;;;;5031340;28;20186;-72
2023/12/10 10:11:37;;;;;;;7.37;2.10;;;11.60;99.90;;;;;;5040696;28;20186;-72
2023/12/10 10:14:03;;;;;;;5.20;2.53;;;11.20;99.90;;;;;;5035342;28;20921;-73
2023/12/10 10:16:31;;;;;;;7.70;2.43;;;11.60;99.90;;;;;;5041805;28;20956;-72
2023/12/10 10:18:59;;;;;;;6.87;2.53;;;12.00;99.90;;;;;;5037783;28;20441;-73
2023/12/10 10:21:24;;;;;;;6.90;2.10;;;11.40;99.90;;;;;;5053824;28;20448;-73
2023/12/10 10:23:50;;;;;;;5.73;2.33;;;10.80;99.90;;;;;;5038478;28;20854;-73
2023/12/10 10:26:17;;;;;;;7.97;2.27;;;10.50;99.90;;;;;;5043716;28;20208;-72
2023/12/10 10:28:45;;;;;;;6.50;3.90;;;10.20;99.90;;;;;;5033095;28;20182;-74
2023/12/10 10:31:11;;;;;;;10.50;2.33;;;10.00;99.90;;;;;;5039765;28;20453;-73
2023/12/10 10:33:36;;;;;;;9.10;2.53;;;9.90;99.90;;;;;;5040252;28;20448;-73
2023/12/10 10:36:02;;;;;;;7.53;1.97;;;9.70;99.90;;;;;;5031839;28;20275;-69
2023/12/10 10:38:29;;;;;;;4.73;2.20;;;9.70;99.90;;;;;;5036610;28;20222;-68
2023/12/10 10:40:59;;;;;;;6.90;2.43;;;9.80;99.90;;;;;;5038531;28;20438;-69
2023/12/10 10:43:25;;;;;;;6.27;1.90;;;9.90;99.90;;;;;;5029950;28;20436;-68
2023/12/10 10:45:53;;;;;;;6.60;2.90;;;9.90;99.90;;;;;;5032666;28;20487;-68
2023/12/10 10:48:25;;;;;;;8.70;1.90;;;9.80;99.90;;;;;;5032734;28;20437;-68
2023/12/10 10:50:52;;;;;;;7.83;2.70;;;9.80;99.90;;;;;;5034337;28;20930;-68
2023/12/10 10:53:18;;;;;;;3.53;1.97;;;9.80;99.90;;;;;;5050967;28;20447;-68
2023/12/10 10:55:48;;;;;;;4.33;2.83;;;9.90;99.90;;;;;;5044390;28;20835;-68
2023/12/10 10:58:28;;;;;;;5.60;2.83;;;9.90;99.90;;;;;;5033638;28;20479;-69
2023/12/10 11:00:58;;;;;;;7.37;2.90;;;9.80;99.90;;;;;;5030979;28;20685;-69
2023/12/10 11:03:27;;;;;;;3.10;2.13;;;9.80;99.90;;;;;;5032421;28;20428;-68
2023/12/10 11:06:06;;;;;;;10.00;2.33;;;9.90;99.90;;;;;;5042793;28;20471;-68
2023/12/10 11:08:33;;;;;;;8.00;2.40;;;9.90;99.90;;;;;;5016808;28;20463;-69
2023/12/10 11:11:00;;;;;;;8.50;2.20;;;9.90;99.90;;;;;;5033811;28;20527;-68
2023/12/10 11:13:45;;;;;;;6.67;2.10;;;9.80;99.90;;;;;;5034958;28;20999;-68
2023/12/10 11:16:11;;;;;;;5.43;2.50;;;9.80;99.90;;;;;;5032936;28;20922;-69
2023/12/10 11:18:58;;;;;;;9.70;3.60;;;9.70;99.90;;;;;;5036303;28;20432;-69
2023/12/10 11:21:24;;;;;;;10.03;3.20;;;9.60;99.90;;;;;;5041287;28;20428;-68
2023/12/10 11:23:50;;;;;;;5.40;2.47;;;9.60;99.90;;;;;;5033441;28;20425;-69
2023/12/10 11:26:16;;;;;;;8.93;2.53;;;9.70;99.90;;;;;;5041108;28;20459;-69
2023/12/10 11:28:42;;;;;;;13.20;4.50;;;9.70;99.90;;;;;;5033895;28;20447;-69
2023/12/10 11:31:08;;;;;;;9.53;2.60;;;9.70;99.90;;;;;;5035902;28;20232;-69
2023/12/10 11:33:38;;;;;;;6.10;2.60;;;9.50;99.90;;;;;;5036100;28;20804;-69
2023/12/10 11:36:09;;;;;;;7.70;2.57;;;9.40;99.90;;;;;;5037986;28;20499;-69
2023/12/10 11:38:35;;;;;;;9.47;3.07;;;9.30;99.90;;;;;;5040223;28;20429;-68
2023/12/10 11:41:01;;;;;;;6.77;2.40;;;9.30;99.90;;;;;;5040379;28;20964;-69
2023/12/10 11:43:27;;;;;;;7.27;2.70;;;9.30;99.90;;;;;;5032981;28;20433;-69
2023/12/10 11:45:53;;;;;;;8.10;2.40;;;9.30;99.90;;;;;;5047688;28;20635;-69
2023/12/10 11:48:19;;;;;;;12.53;4.33;;;9.30;99.90;;;;;;5034480;28;20926;-69
2023/12/10 11:50:46;;;;;;;9.67;2.90;;;9.30;99.90;;;;;;5028495;28;20434;-69
2023/12/10 11:53:14;;;;;;;6.60;2.93;;;9.20;99.90;;;;;;5043428;28;20170;-69
2023/12/10 11:55:41;;;;;;;6.37;2.60;;;9.30;99.90;;;;;;5036748;28;20473;-69
2023/12/10 11:58:07;;;;;;;9.90;3.67;;;9.30;99.90;;;;;;5042965;28;20497;-69
2023/12/10 12:00:32;;;;;;;8.50;2.77;;;9.30;99.90;;;;;;5037757;28;20526;-69
2023/12/10 12:02:58;;;;;;;7.10;2.50;;;9.50;99.90;;;;;;5039410;28;20175;-69
2023/12/10 12:05:23;;;;;;;12.23;2.97;;;9.60;99.90;;;;;;5051699;28;20170;-69
2023/12/10 12:07:50;;;;;;;10.67;3.13;;;9.70;99.90;;;;;;5062649;22;20221;-68
2023/12/10 12:10:17;;;;;;;6.33;2.63;;;9.80;99.90;;;;;;5052683;28;20181;-66
2023/12/10 12:12:45;;;;;;;7.13;2.70;;;9.80;99.90;;;;;;5053099;28;20434;-68
2023/12/10 12:15:11;;;;;;;10.23;2.70;;;9.80;99.90;;;;;;5060747;28;20472;-68
2023/12/10 12:17:38;;;;;;;10.17;3.00;;;9.80;99.90;;;;;;5042129;28;20857;-68
2023/12/10 12:20:18;;;;;;;6.37;2.57;;;9.90;99.90;;;;;;5049222;28;20420;-68
2023/12/10 12:22:45;;;;;;;8.90;3.57;;;9.90;99.90;;;;;;5051878;28;20430;-69
2023/12/10 12:25:11;;;;;;;10.53;2.87;;;10.00;99.90;;;;;;5052821;28;20470;-68
2023/12/10 12:27:36;;;;;;;10.10;3.50;;;10.10;99.90;;;;;;5049756;28;20468;-68
2023/12/10 12:30:03;;;;;;;12.33;3.90;;;10.00;99.90;;;;;;5055932;28;20526;-68
2023/12/10 12:32:28;;;;;;;7.10;4.00;;;10.00;99.90;;;;;;5052258;28;20824;-68
2023/12/10 12:34:54;;;;;;;9.17;3.20;;;9.90;99.90;;;;;;5053916;28;20456;-68
2023/12/10 12:37:19;;;;;;;13.67;2.57;;;9.90;99.90;;;;;;5058319;28;20235;-67
2023/12/10 12:39:45;;;;;;;10.43;3.67;;;9.90;99.90;;;;;;5058427;28;20190;-67
2023/12/10 12:42:10;;;;;;;10.20;3.20;;;9.80;99.90;;;;;;5050113;28;20615;-67
2023/12/10 12:44:36;;;;;;;9.30;2.93;;;9.80;99.90;;;;;;5041434;28;20195;-71